Heijin — 3EUE7 — position and weather

sailwx.info

Track history (hours):
 
Tides and Currents Weather Stations Pressure Air Temp Water Temp Dewpoint Dewpoint Depression Visibility Wind Speed Wind Dir Waves Ship Positions

Heijin

Last reported at 2017-Oct-31 08:30 UTC. Time now 2017-Nov-19 01:10 UTC.
Position N 37°34' W 123°39'.
Warning: this ship's position is 18 days out of date.

Length 180 m; beam 32.2 m.

Type: Cargo ship. MMSI: 353788000.

Date/timePositionNaut miles runAvg speedWind from/ knotsBaromVisibWave heightAir tempDewpointWater temp
2017-Oct-31 08:30N 37°34' W 123°39'816.8
2017-Oct-31 08:00N 37°34' W 123°28'816.3
2017-Oct-31 07:30N 37°34' W 123°18'816.7
2017-Oct-31 07:00N 37°34' W 123°08'816.7
2017-Oct-31 06:30N 37°37' W 122°58'816.9
2017-Oct-31 06:00N 37°42' W 122°49'613.0
2017-Oct-31 05:30N 37°44' W 122°41'612.2
2017-Oct-31 05:00N 37°47' W 122°34'815.4
2017-Oct-31 04:30N 37°50' W 122°25'713.9
2017-Oct-31 04:00N 37°57' W 122°27'713.9
2017-Oct-31 03:30N 38°02' W 122°21'713.5
2017-Oct-31 03:00N 38°04' W 122°13'4 7.5
2017-Oct-31 02:30N 38°02' W 122°08'0 0.0
2017-Oct-30 05:14N 38°02' W 122°08'0 1.9
2017-Oct-30 05:00N 38°02' W 122°08'713.4
2017-Oct-30 04:30N 38°04' W 122°17'815.9
2017-Oct-30 04:00N 37°60' W 122°25'714.2
2017-Oct-30 03:31N 37°52' W 122°25'510.2
2017-Oct-30 03:00N 37°49' W 122°30'713.8
2017-Oct-30 02:30N 37°46' W 122°38'5 9.0
2017-Oct-30 02:00N 37°42' W 122°40'3 6.8
2017-Oct-30 01:30N 37°39' W 122°40'611.9
2017-Oct-30 01:00N 37°33' W 122°39'612.0
2017-Oct-30 00:30N 37°27' W 122°39'815.3
2017-Oct-30 00:00N 37°19' W 122°40'815.6
2017-Oct-29 23:30N 37°11' W 122°40'815.8
2017-Oct-29 23:00N 37°04' W 122°42'815.4
2017-Oct-29 22:31N 36°56' W 122°43'815.6
2017-Oct-29 22:00N 36°48' W 122°45'815.6
2017-Oct-29 21:31N 36°40' W 122°45'815.7
2017-Oct-29 21:00N 36°33' W 122°44'815.5
2017-Oct-29 20:30N 36°25' W 122°43'815.1
2017-Oct-29 20:00N 36°17' W 122°41'714.7
2017-Oct-29 19:30N 36°10' W 122°40'714.9
2017-Oct-29 19:00N 36°03' W 122°40'815.0
2017-Oct-29 18:30N 35°55' W 122°39'713.4
2017-Oct-29 18:00N 35°49' W 122°37'510.6
2017-Oct-29 17:30N 35°43' W 122°36'0 0.9
2017-Oct-29 17:00N 35°44' W 122°36'1 2.4
2017-Oct-29 16:30N 35°45' W 122°37'1 2.2
2017-Oct-29 16:00N 35°46' W 122°38'1 2.2
2017-Oct-29 15:30N 35°47' W 122°39'1 2.4
2017-Oct-29 15:00N 35°48' W 122°39'2 2.3
2017-Oct-29 14:20N 35°49' W 122°40'1 2.4
2017-Oct-29 13:52N 35°50' W 122°41'1 2.3
2017-Oct-29 13:29N 35°51' W 122°41'1 2.3
2017-Oct-29 13:00N 35°52' W 122°42'1 2.3
2017-Oct-29 12:30N 35°53' W 122°42'1 2.3
2017-Oct-29 12:00N 35°54' W 122°42'1 2.3
2017-Oct-29 11:29N 35°55' W 122°43'1 2.3
2017-Oct-29 10:59N 35°56' W 122°43'1 2.2
2017-Oct-29 10:30N 35°57' W 122°43'1 2.3
2017-Oct-29 10:00N 35°58' W 122°44'2 2.1
2017-Oct-29 09:17N 35°60' W 122°44'1 2.1
2017-Oct-29 08:59N 36°00' W 122°45'1 2.0
2017-Oct-29 08:28N 36°01' W 122°45'1 2.2
2017-Oct-29 07:50N 36°03' W 122°46'1 2.1
2017-Oct-29 07:30N 36°03' W 122°46'1 2.2
2017-Oct-29 07:00N 36°04' W 122°47'1 2.2
2017-Oct-29 06:30N 36°05' W 122°47'1 2.2
2017-Oct-29 06:00N 36°06' W 122°48'1 2.2
2017-Oct-29 05:30N 36°07' W 122°49'1 2.3
2017-Oct-29 05:00N 36°08' W 122°49'1 2.2
2017-Oct-29 04:30N 36°09' W 122°50'1 2.2
2017-Oct-29 04:00N 36°10' W 122°51'53 5.9
2017-Oct-28 19:00N 35°33' W 122°04'815.6
2017-Oct-28 18:30N 35°27' W 121°58'815.7
2017-Oct-28 18:00N 35°21' W 121°51'815.7
2017-Oct-28 17:30N 35°16' W 121°44'815.8
2017-Oct-28 17:00N 35°10' W 121°38'816.0
2017-Oct-28 16:30N 35°04' W 121°31'815.9
2017-Oct-28 16:00N 34°59' W 121°24'816.2
2017-Oct-28 15:30N 34°53' W 121°17'816.4
2017-Oct-28 15:00N 34°46' W 121°11'816.1
2017-Oct-28 14:30N 34°40' W 121°05'815.7
2017-Oct-28 14:00N 34°34' W 120°59'816.1
2017-Oct-28 13:30N 34°27' W 120°53'815.8
2017-Oct-28 13:00N 34°25' W 120°44'815.9
2017-Oct-28 12:29N 34°22' W 120°35'816.0
2017-Oct-28 11:58N 34°21' W 120°25'816.7
2017-Oct-28 11:30N 34°19' W 120°16'916.8
2017-Oct-28 10:58N 34°16' W 120°05'916.3
2017-Oct-28 10:26N 34°14' W 119°55'715.2
2017-Oct-28 10:00N 34°12' W 119°48'815.4
2017-Oct-28 09:30N 34°10' W 119°39'815.6
2017-Oct-28 09:00N 34°08' W 119°30'815.9
2017-Oct-28 08:30N 34°06' W 119°20'815.9
2017-Oct-28 08:00N 34°03' W 119°11'713.5
2017-Oct-28 07:30N 33°59' W 119°04'510.4
2017-Oct-28 07:00N 33°57' W 118°59'510.3
2017-Oct-28 06:30N 33°54' W 118°53'510.2
2017-Oct-28 05:59N 33°51' W 118°48'510.3
2017-Oct-28 05:27N 33°49' W 118°42'510.3
2017-Oct-28 05:00N 33°47' W 118°37'610.4
2017-Oct-28 04:26N 33°44' W 118°31'510.2
2017-Oct-28 03:59N 33°41' W 118°26'510.1
2017-Oct-28 03:28N 33°39' W 118°21'510.3
2017-Oct-28 03:01N 33°38' W 118°15'4 8.5
2017-Oct-28 02:30N 33°41' W 118°11'4 7.6
2017-Oct-28 02:00N 33°45' W 118°13'2 2.8
2017-Oct-28 01:23N 33°46' W 118°13'0 0.0
2017-Oct-28 00:41N 33°46' W 118°13'0 0.0
2017-Oct-28 00:29N 33°46' W 118°13'0 0.0
2017-Oct-27 23:59N 33°46' W 118°13'0 0.0
2017-Oct-27 23:23N 33°46' W 118°13'0 0.0
2017-Oct-27 22:53N 33°46' W 118°13'0 0.0
2017-Oct-27 22:23N 33°46' W 118°13'0 0.0
2017-Oct-27 21:59N 33°46' W 118°13'0 0.0
2017-Oct-27 21:29N 33°46' W 118°13'0 0.0
2017-Oct-27 20:59N 33°46' W 118°13'0 0.0
2017-Oct-27 20:23N 33°46' W 118°13'0 0.0
2017-Oct-27 19:59N 33°46' W 118°13'0 0.0
2017-Oct-27 19:29N 33°46' W 118°13'0 0.0
2017-Oct-27 18:53N 33°46' W 118°13'0 0.0
2017-Oct-27 18:23N 33°46' W 118°13'0 0.0
2017-Oct-27 17:47N 33°46' W 118°13'0 0.0
2017-Oct-27 17:29N 33°46' W 118°13'0 0.0
2017-Oct-27 16:59N 33°46' W 118°13'0 0.0
2017-Oct-27 16:29N 33°46' W 118°13'0 0.0
2017-Oct-27 15:47N 33°46' W 118°13'0 0.0
2017-Oct-27 15:29N 33°46' W 118°13'0 0.0
2017-Oct-27 14:59N 33°46' W 118°13'0 0.0
2017-Oct-27 14:29N 33°46' W 118°13'0 0.0
2017-Oct-27 13:53N 33°46' W 118°13'0 0.0
2017-Oct-27 13:29N 33°46' W 118°13'0 0.0
2017-Oct-27 12:59N 33°46' W 118°13'0 0.0
2017-Oct-27 12:29N 33°46' W 118°13'0 0.0
2017-Oct-27 11:59N 33°46' W 118°13'0 0.0
2017-Oct-27 11:29N 33°46' W 118°13'0 0.0
2017-Oct-27 10:59N 33°46' W 118°13'0 0.0
2017-Oct-27 10:29N 33°46' W 118°13'0 0.0
2017-Oct-27 09:59N 33°46' W 118°13'0 0.0
2017-Oct-27 09:29N 33°46' W 118°13'0 0.9
2017-Oct-27 09:00N 33°46' W 118°14'1 2.2
2017-Oct-27 08:30N 33°45' W 118°13'4 8.2
2017-Oct-27 08:00N 33°41' W 118°11'4 8.0
2017-Oct-27 07:30N 33°38' W 118°13'5 9.5
2017-Oct-27 07:00N 33°36' W 118°18'5 9.6
2017-Oct-27 06:31N 33°37' W 118°24'510.7
2017-Oct-27 06:00N 33°40' W 118°29'510.4
2017-Oct-27 05:30N 33°43' W 118°35'510.5
2017-Oct-27 05:00N 33°45' W 118°40'510.6
2017-Oct-27 04:30N 33°48' W 118°46'510.4
2017-Oct-27 04:00N 33°50' W 118°51'510.5
2017-Oct-27 03:30N 33°53' W 118°57'610.6
2017-Oct-27 02:58N 33°56' W 119°02'510.3
2017-Oct-27 02:30N 33°58' W 119°08'612.0
2017-Oct-27 02:00N 34°01' W 119°14'714.5
2017-Oct-27 01:30N 34°04' W 119°22'714.5
2017-Oct-27 01:00N 34°06' W 119°31'714.1
2017-Oct-27 00:29N 34°08' W 119°39'714.2
2017-Oct-27 00:00N 34°09' W 119°47'714.3
2017-Oct-26 23:31N 34°11' W 119°55'714.0
2017-Oct-26 22:59N 34°13' W 120°04'714.1
2017-Oct-26 22:30N 34°15' W 120°12'815.9
2017-Oct-26 22:00N 34°17' W 120°21'815.8
2017-Oct-26 21:30N 34°19' W 120°30'816.1
2017-Oct-26 21:00N 34°21' W 120°40'815.5
2017-Oct-26 20:30N 34°23' W 120°49'713.8
2017-Oct-26 20:00N 34°25' W 120°57'713.8
2017-Oct-26 19:30N 34°26' W 121°05'713.9
2017-Oct-26 19:00N 34°26' W 121°14'714.0
2017-Oct-26 18:30N 34°27' W 121°22'3 6.6
2017-Oct-26 18:00N 34°28' W 121°26'1 1.1
2017-Oct-26 17:30N 34°28' W 121°27'0 0.8
2017-Oct-26 17:00N 34°28' W 121°27'0 0.6
2017-Oct-26 16:30N 34°28' W 121°28'1 1.2
2017-Oct-26 16:00N 34°28' W 121°28'1 1.2
2017-Oct-26 15:28N 34°27' W 121°29'1 1.3
2017-Oct-26 15:00N 34°27' W 121°30'1 1.2
2017-Oct-26 14:24N 34°27' W 121°31'1 1.3
2017-Oct-26 13:53N 34°27' W 121°31'1 1.6
2017-Oct-26 13:30N 34°27' W 121°32'1 1.5
2017-Oct-26 13:00N 34°27' W 121°33'1 1.5
2017-Oct-26 12:30N 34°27' W 121°34'1 1.5
2017-Oct-26 11:57N 34°27' W 121°35'1 1.4
2017-Oct-26 11:30N 34°28' W 121°36'1 1.3
2017-Oct-26 10:59N 34°28' W 121°36'1 1.4
2017-Oct-26 10:30N 34°28' W 121°37'1 1.5
2017-Oct-26 10:00N 34°28' W 121°38'1 1.3
2017-Oct-26 09:30N 34°28' W 121°39'1 1.3
2017-Oct-26 09:00N 34°29' W 121°40'1 1.2
2017-Oct-26 08:29N 34°29' W 121°40'1 1.5
2017-Oct-26 08:00N 34°30' W 121°41'4 7.5
2017-Oct-26 07:30N 34°29' W 121°45'713.7
2017-Oct-26 07:00N 34°29' W 121°53'816.2
2017-Oct-26 06:30N 34°28' W 122°03'816.2
2017-Oct-26 06:00N 34°27' W 122°13'815.9
2017-Oct-26 05:30N 34°27' W 122°23'815.5
2017-Oct-26 05:00N 34°26' W 122°32'713.5
2017-Oct-26 04:30N 34°24' W 122°40'815.4
2017-Oct-26 04:01N 34°23' W 122°49'815.3
2017-Oct-26 03:30N 34°23' W 122°58'815.4
2017-Oct-26 03:00N 34°23' W 123°08'815.4
2017-Oct-26 02:30N 34°23' W 123°17'815.8
2017-Oct-26 02:00N 34°23' W 123°27'815.5
2017-Oct-26 01:30N 34°23' W 123°36'815.3
2017-Oct-26 01:00N 34°23' W 123°45'715.1
2017-Oct-26 00:30N 34°22' W 123°54'815.1
2017-Oct-26 00:00N 34°22' W 124°04'715.1
2017-Oct-25 23:30N 34°22' W 124°13'815.6
2017-Oct-25 23:00N 34°22' W 124°22'815.4
2017-Oct-25 22:30N 34°22' W 124°31'815.3
2017-Oct-25 22:00N 34°22' W 124°41'815.3
2017-Oct-25 21:30N 34°22' W 124°50'815.1
2017-Oct-25 21:00N 34°22' W 124°59'815.2
2017-Oct-25 20:30N 34°22' W 125°08'815.3
2017-Oct-25 20:00N 34°23' W 125°18'815.4
2017-Oct-25 19:30N 34°23' W 125°27'815.2
2017-Oct-25 19:00N 34°24' W 125°36'715.0
2017-Oct-25 18:30N 34°25' W 125°45'815.2
2017-Oct-25 18:00N 34°26' W 125°54'715.1
2017-Oct-25 17:30N 34°26' W 126°03'714.9
2017-Oct-25 17:00N 34°27' W 126°12'815.3
2017-Oct-25 16:30N 34°28' W 126°22'815.2
2017-Oct-25 16:00N 34°29' W 126°31'  
Track history (hours):
 
Tides and Currents Weather Stations Pressure Air Temp Water Temp Dewpoint Dewpoint Depression Visibility Wind Speed Wind Dir Waves Ship Positions

Heijin

Last reported at 2017-Oct-31 08:30 UTC. Time now 2017-Nov-19 01:10 UTC.
Position N 37°34' W 123°39'.
Warning: this ship's position is 18 days out of date.

Length 180 m; beam 32.2 m.

Type: Cargo ship. MMSI: 353788000.

Date/timePositionNaut miles runAvg speedWind from/ knotsBaromVisibWave heightAir tempDewpointWater temp
2017-Oct-31 08:30N 37°34' W 123°39'816.8
2017-Oct-31 08:00N 37°34' W 123°28'816.3
2017-Oct-31 07:30N 37°34' W 123°18'816.7
2017-Oct-31 07:00N 37°34' W 123°08'816.7
2017-Oct-31 06:30N 37°37' W 122°58'816.9
2017-Oct-31 06:00N 37°42' W 122°49'613.0
2017-Oct-31 05:30N 37°44' W 122°41'612.2
2017-Oct-31 05:00N 37°47' W 122°34'815.4
2017-Oct-31 04:30N 37°50' W 122°25'713.9
2017-Oct-31 04:00N 37°57' W 122°27'713.9
2017-Oct-31 03:30N 38°02' W 122°21'713.5
2017-Oct-31 03:00N 38°04' W 122°13'4 7.5
2017-Oct-31 02:30N 38°02' W 122°08'0 0.0
2017-Oct-30 05:14N 38°02' W 122°08'0 1.9
2017-Oct-30 05:00N 38°02' W 122°08'713.4
2017-Oct-30 04:30N 38°04' W 122°17'815.9
2017-Oct-30 04:00N 37°60' W 122°25'714.2
2017-Oct-30 03:31N 37°52' W 122°25'510.2
2017-Oct-30 03:00N 37°49' W 122°30'713.8
2017-Oct-30 02:30N 37°46' W 122°38'5 9.0
2017-Oct-30 02:00N 37°42' W 122°40'3 6.8
2017-Oct-30 01:30N 37°39' W 122°40'611.9
2017-Oct-30 01:00N 37°33' W 122°39'612.0
2017-Oct-30 00:30N 37°27' W 122°39'815.3
2017-Oct-30 00:00N 37°19' W 122°40'815.6
2017-Oct-29 23:30N 37°11' W 122°40'815.8
2017-Oct-29 23:00N 37°04' W 122°42'815.4
2017-Oct-29 22:31N 36°56' W 122°43'815.6
2017-Oct-29 22:00N 36°48' W 122°45'815.6
2017-Oct-29 21:31N 36°40' W 122°45'815.7
2017-Oct-29 21:00N 36°33' W 122°44'815.5
2017-Oct-29 20:30N 36°25' W 122°43'815.1
2017-Oct-29 20:00N 36°17' W 122°41'714.7
2017-Oct-29 19:30N 36°10' W 122°40'714.9
2017-Oct-29 19:00N 36°03' W 122°40'815.0
2017-Oct-29 18:30N 35°55' W 122°39'713.4
2017-Oct-29 18:00N 35°49' W 122°37'510.6
2017-Oct-29 17:30N 35°43' W 122°36'0 0.9
2017-Oct-29 17:00N 35°44' W 122°36'1 2.4
2017-Oct-29 16:30N 35°45' W 122°37'1 2.2
2017-Oct-29 16:00N 35°46' W 122°38'1 2.2
2017-Oct-29 15:30N 35°47' W 122°39'1 2.4
2017-Oct-29 15:00N 35°48' W 122°39'2 2.3
2017-Oct-29 14:20N 35°49' W 122°40'1 2.4
2017-Oct-29 13:52N 35°50' W 122°41'1 2.3
2017-Oct-29 13:29N 35°51' W 122°41'1 2.3
2017-Oct-29 13:00N 35°52' W 122°42'1 2.3
2017-Oct-29 12:30N 35°53' W 122°42'1 2.3
2017-Oct-29 12:00N 35°54' W 122°42'1 2.3
2017-Oct-29 11:29N 35°55' W 122°43'1 2.3
2017-Oct-29 10:59N 35°56' W 122°43'1 2.2
2017-Oct-29 10:30N 35°57' W 122°43'1 2.3
2017-Oct-29 10:00N 35°58' W 122°44'2 2.1
2017-Oct-29 09:17N 35°60' W 122°44'1 2.1
2017-Oct-29 08:59N 36°00' W 122°45'1 2.0
2017-Oct-29 08:28N 36°01' W 122°45'1 2.2
2017-Oct-29 07:50N 36°03' W 122°46'1 2.1
2017-Oct-29 07:30N 36°03' W 122°46'1 2.2
2017-Oct-29 07:00N 36°04' W 122°47'1 2.2
2017-Oct-29 06:30N 36°05' W 122°47'1 2.2
2017-Oct-29 06:00N 36°06' W 122°48'1 2.2
2017-Oct-29 05:30N 36°07' W 122°49'1 2.3
2017-Oct-29 05:00N 36°08' W 122°49'1 2.2
2017-Oct-29 04:30N 36°09' W 122°50'1 2.2
2017-Oct-29 04:00N 36°10' W 122°51'53 5.9
2017-Oct-28 19:00N 35°33' W 122°04'815.6
2017-Oct-28 18:30N 35°27' W 121°58'815.7
2017-Oct-28 18:00N 35°21' W 121°51'815.7
2017-Oct-28 17:30N 35°16' W 121°44'815.8
2017-Oct-28 17:00N 35°10' W 121°38'816.0
2017-Oct-28 16:30N 35°04' W 121°31'815.9
2017-Oct-28 16:00N 34°59' W 121°24'816.2
2017-Oct-28 15:30N 34°53' W 121°17'816.4
2017-Oct-28 15:00N 34°46' W 121°11'816.1
2017-Oct-28 14:30N 34°40' W 121°05'815.7
2017-Oct-28 14:00N 34°34' W 120°59'816.1
2017-Oct-28 13:30N 34°27' W 120°53'815.8
2017-Oct-28 13:00N 34°25' W 120°44'815.9
2017-Oct-28 12:29N 34°22' W 120°35'816.0
2017-Oct-28 11:58N 34°21' W 120°25'816.7
2017-Oct-28 11:30N 34°19' W 120°16'916.8
2017-Oct-28 10:58N 34°16' W 120°05'916.3
2017-Oct-28 10:26N 34°14' W 119°55'715.2
2017-Oct-28 10:00N 34°12' W 119°48'815.4
2017-Oct-28 09:30N 34°10' W 119°39'815.6
2017-Oct-28 09:00N 34°08' W 119°30'815.9
2017-Oct-28 08:30N 34°06' W 119°20'815.9
2017-Oct-28 08:00N 34°03' W 119°11'713.5
2017-Oct-28 07:30N 33°59' W 119°04'510.4
2017-Oct-28 07:00N 33°57' W 118°59'510.3
2017-Oct-28 06:30N 33°54' W 118°53'510.2
2017-Oct-28 05:59N 33°51' W 118°48'510.3
2017-Oct-28 05:27N 33°49' W 118°42'510.3
2017-Oct-28 05:00N 33°47' W 118°37'610.4
2017-Oct-28 04:26N 33°44' W 118°31'510.2
2017-Oct-28 03:59N 33°41' W 118°26'510.1
2017-Oct-28 03:28N 33°39' W 118°21'510.3
2017-Oct-28 03:01N 33°38' W 118°15'4 8.5
2017-Oct-28 02:30N 33°41' W 118°11'4 7.6
2017-Oct-28 02:00N 33°45' W 118°13'2 2.8
2017-Oct-28 01:23N 33°46' W 118°13'0 0.0
2017-Oct-28 00:41N 33°46' W 118°13'0 0.0
2017-Oct-28 00:29N 33°46' W 118°13'0 0.0
2017-Oct-27 23:59N 33°46' W 118°13'0 0.0
2017-Oct-27 23:23N 33°46' W 118°13'0 0.0
2017-Oct-27 22:53N 33°46' W 118°13'0 0.0
2017-Oct-27 22:23N 33°46' W 118°13'0 0.0
2017-Oct-27 21:59N 33°46' W 118°13'0 0.0
2017-Oct-27 21:29N 33°46' W 118°13'0 0.0
2017-Oct-27 20:59N 33°46' W 118°13'0 0.0
2017-Oct-27 20:23N 33°46' W 118°13'0 0.0
2017-Oct-27 19:59N 33°46' W 118°13'0 0.0
2017-Oct-27 19:29N 33°46' W 118°13'0 0.0
2017-Oct-27 18:53N 33°46' W 118°13'0 0.0
2017-Oct-27 18:23N 33°46' W 118°13'0 0.0
2017-Oct-27 17:47N 33°46' W 118°13'0 0.0
2017-Oct-27 17:29N 33°46' W 118°13'0 0.0
2017-Oct-27 16:59N 33°46' W 118°13'0 0.0
2017-Oct-27 16:29N 33°46' W 118°13'0 0.0
2017-Oct-27 15:47N 33°46' W 118°13'0 0.0
2017-Oct-27 15:29N 33°46' W 118°13'0 0.0
2017-Oct-27 14:59N 33°46' W 118°13'0 0.0
2017-Oct-27 14:29N 33°46' W 118°13'0 0.0
2017-Oct-27 13:53N 33°46' W 118°13'0 0.0
2017-Oct-27 13:29N 33°46' W 118°13'0 0.0
2017-Oct-27 12:59N 33°46' W 118°13'0 0.0
2017-Oct-27 12:29N 33°46' W 118°13'0 0.0
2017-Oct-27 11:59N 33°46' W 118°13'0 0.0
2017-Oct-27 11:29N 33°46' W 118°13'0 0.0
2017-Oct-27 10:59N 33°46' W 118°13'0 0.0
2017-Oct-27 10:29N 33°46' W 118°13'0 0.0
2017-Oct-27 09:59N 33°46' W 118°13'0 0.0
2017-Oct-27 09:29N 33°46' W 118°13'0 0.9
2017-Oct-27 09:00N 33°46' W 118°14'1 2.2
2017-Oct-27 08:30N 33°45' W 118°13'4 8.2
2017-Oct-27 08:00N 33°41' W 118°11'4 8.0
2017-Oct-27 07:30N 33°38' W 118°13'5 9.5
2017-Oct-27 07:00N 33°36' W 118°18'5 9.6
2017-Oct-27 06:31N 33°37' W 118°24'510.7
2017-Oct-27 06:00N 33°40' W 118°29'510.4
2017-Oct-27 05:30N 33°43' W 118°35'510.5
2017-Oct-27 05:00N 33°45' W 118°40'510.6
2017-Oct-27 04:30N 33°48' W 118°46'510.4
2017-Oct-27 04:00N 33°50' W 118°51'510.5
2017-Oct-27 03:30N 33°53' W 118°57'610.6
2017-Oct-27 02:58N 33°56' W 119°02'510.3
2017-Oct-27 02:30N 33°58' W 119°08'612.0
2017-Oct-27 02:00N 34°01' W 119°14'714.5
2017-Oct-27 01:30N 34°04' W 119°22'714.5
2017-Oct-27 01:00N 34°06' W 119°31'714.1
2017-Oct-27 00:29N 34°08' W 119°39'714.2
2017-Oct-27 00:00N 34°09' W 119°47'714.3
2017-Oct-26 23:31N 34°11' W 119°55'714.0
2017-Oct-26 22:59N 34°13' W 120°04'714.1
2017-Oct-26 22:30N 34°15' W 120°12'815.9
2017-Oct-26 22:00N 34°17' W 120°21'815.8
2017-Oct-26 21:30N 34°19' W 120°30'816.1
2017-Oct-26 21:00N 34°21' W 120°40'815.5
2017-Oct-26 20:30N 34°23' W 120°49'713.8
2017-Oct-26 20:00N 34°25' W 120°57'713.8
2017-Oct-26 19:30N 34°26' W 121°05'713.9
2017-Oct-26 19:00N 34°26' W 121°14'714.0
2017-Oct-26 18:30N 34°27' W 121°22'3 6.6
2017-Oct-26 18:00N 34°28' W 121°26'1 1.1
2017-Oct-26 17:30N 34°28' W 121°27'0 0.8
2017-Oct-26 17:00N 34°28' W 121°27'0 0.6
2017-Oct-26 16:30N 34°28' W 121°28'1 1.2
2017-Oct-26 16:00N 34°28' W 121°28'1 1.2
2017-Oct-26 15:28N 34°27' W 121°29'1 1.3
2017-Oct-26 15:00N 34°27' W 121°30'1 1.2
2017-Oct-26 14:24N 34°27' W 121°31'1 1.3
2017-Oct-26 13:53N 34°27' W 121°31'1 1.6
2017-Oct-26 13:30N 34°27' W 121°32'1 1.5
2017-Oct-26 13:00N 34°27' W 121°33'1 1.5
2017-Oct-26 12:30N 34°27' W 121°34'1 1.5
2017-Oct-26 11:57N 34°27' W 121°35'1 1.4
2017-Oct-26 11:30N 34°28' W 121°36'1 1.3
2017-Oct-26 10:59N 34°28' W 121°36'1 1.4
2017-Oct-26 10:30N 34°28' W 121°37'1 1.5
2017-Oct-26 10:00N 34°28' W 121°38'1 1.3
2017-Oct-26 09:30N 34°28' W 121°39'1 1.3
2017-Oct-26 09:00N 34°29' W 121°40'1 1.2
2017-Oct-26 08:29N 34°29' W 121°40'1 1.5
2017-Oct-26 08:00N 34°30' W 121°41'4 7.5
2017-Oct-26 07:30N 34°29' W 121°45'713.7
2017-Oct-26 07:00N 34°29' W 121°53'816.2
2017-Oct-26 06:30N 34°28' W 122°03'816.2
2017-Oct-26 06:00N 34°27' W 122°13'815.9
2017-Oct-26 05:30N 34°27' W 122°23'815.5
2017-Oct-26 05:00N 34°26' W 122°32'713.5
2017-Oct-26 04:30N 34°24' W 122°40'815.4
2017-Oct-26 04:01N 34°23' W 122°49'815.3
2017-Oct-26 03:30N 34°23' W 122°58'815.4
2017-Oct-26 03:00N 34°23' W 123°08'815.4
2017-Oct-26 02:30N 34°23' W 123°17'815.8
2017-Oct-26 02:00N 34°23' W 123°27'815.5
2017-Oct-26 01:30N 34°23' W 123°36'815.3
2017-Oct-26 01:00N 34°23' W 123°45'715.1
2017-Oct-26 00:30N 34°22' W 123°54'815.1
2017-Oct-26 00:00N 34°22' W 124°04'715.1
2017-Oct-25 23:30N 34°22' W 124°13'815.6
2017-Oct-25 23:00N 34°22' W 124°22'815.4
2017-Oct-25 22:30N 34°22' W 124°31'815.3
2017-Oct-25 22:00N 34°22' W 124°41'815.3
2017-Oct-25 21:30N 34°22' W 124°50'815.1
2017-Oct-25 21:00N 34°22' W 124°59'815.2
2017-Oct-25 20:30N 34°22' W 125°08'815.3
2017-Oct-25 20:00N 34°23' W 125°18'815.4
2017-Oct-25 19:30N 34°23' W 125°27'815.2
2017-Oct-25 19:00N 34°24' W 125°36'715.0
2017-Oct-25 18:30N 34°25' W 125°45'815.2
2017-Oct-25 18:00N 34°26' W 125°54'715.1
2017-Oct-25 17:30N 34°26' W 126°03'714.9
2017-Oct-25 17:00N 34°27' W 126°12'815.3
2017-Oct-25 16:30N 34°28' W 126°22'815.2
2017-Oct-25 16:00N 34°29' W 126°31'  

Dump ship's entire track history